createdAt,value
2022-08-11T00:01:50.335Z,54.48
2022-08-11T00:04:53.275Z,54.88
2022-08-11T00:07:57.354Z,54.98
2022-08-11T00:11:06.072Z,55.36
2022-08-11T00:14:36.733Z,55.63
2022-08-11T00:17:40.768Z,55.59
2022-08-11T00:20:44.620Z,55.57
2022-08-11T00:23:53.579Z,55.72
2022-08-11T00:26:55.634Z,55.93
2022-08-11T00:29:58.286Z,56.05
2022-08-11T00:33:00.215Z,55.76
2022-08-11T00:36:03.889Z,56.05
2022-08-11T00:39:08.089Z,55.89
2022-08-11T00:42:31.293Z,56.05
2022-08-11T00:45:42.784Z,56.53
2022-08-11T00:49:00.742Z,56.47
2022-08-11T00:52:17.694Z,57.17
2022-08-11T00:55:34.133Z,57.37
2022-08-11T00:58:48.317Z,58.43
2022-08-11T01:02:17.492Z,57.66
2022-08-11T01:05:56.735Z,58.11
2022-08-11T01:09:32.347Z,59.38
2022-08-11T01:12:53.642Z,60.47
2022-08-11T01:16:24.782Z,60.75
2022-08-11T01:20:38.584Z,59.81
2022-08-11T01:23:02.074Z,59.18
2022-08-11T01:26:43.370Z,59.37
2022-08-11T01:30:13.857Z,58.90
2022-08-11T01:33:51.401Z,59.95
2022-08-11T01:37:31.950Z,59.79
2022-08-11T01:40:59.284Z,59.76
2022-08-11T01:44:38.864Z,60.17
2022-08-11T01:48:06.430Z,59.51
2022-08-11T01:51:47.850Z,60.13
2022-08-11T01:55:15.062Z,59.72
2022-08-11T01:58:43.722Z,60.33
2022-08-11T02:02:11.455Z,60.75
2022-08-11T02:05:48.161Z,60.36
2022-08-11T02:09:02.196Z,60.10
2022-08-11T02:12:17.769Z,60.70
2022-08-11T02:15:37.446Z,60.46
2022-08-11T02:19:21.758Z,60.67
2022-08-11T02:22:56.577Z,61.98
2022-08-11T02:26:09.916Z,61.34
2022-08-11T02:29:21.969Z,62.93
2022-08-11T02:32:55.648Z,62.11
2022-08-11T02:36:10.219Z,61.77
2022-08-11T02:39:19.088Z,61.13
2022-08-11T02:42:32.891Z,61.40
2022-08-11T02:45:50.822Z,61.48
2022-08-11T02:50:03.458Z,62.31
2022-08-11T02:53:22.604Z,62.94
2022-08-11T02:56:38.936Z,62.61
2022-08-11T02:59:56.617Z,62.38
2022-08-11T03:03:09.034Z,62.52
2022-08-11T03:06:20.389Z,62.18
2022-08-11T03:09:43.707Z,62.16
2022-08-11T03:13:23.583Z,63.67
2022-08-11T03:16:46.544Z,62.36
2022-08-11T03:20:08.897Z,62.83
2022-08-11T03:23:48.133Z,63.38
2022-08-11T03:27:21.786Z,62.81
2022-08-11T03:30:40.166Z,63.16
2022-08-11T03:34:06.660Z,63.16
2022-08-11T03:37:38.534Z,63.75
2022-08-11T03:42:02.114Z,62.29
2022-08-11T03:45:20.744Z,63.17
2022-08-11T03:48:30.074Z,63.03
2022-08-11T03:51:51.934Z,65.62
2022-08-11T03:55:40.012Z,64.31
2022-08-11T03:59:03.351Z,63.33
2022-08-11T04:02:10.969Z,63.77
2022-08-11T04:05:31.252Z,64.11
2022-08-11T04:08:49.249Z,63.27
2022-08-11T04:12:42.115Z,64.65
2022-08-11T04:16:11.656Z,63.85
2022-08-11T04:19:17.500Z,63.47
2022-08-11T04:23:03.413Z,63.88
2022-08-11T04:26:26.139Z,63.54
2022-08-11T04:30:04.957Z,63.54
2022-08-11T04:33:50.663Z,64.13
2022-08-11T04:37:12.482Z,62.95
2022-08-11T04:40:35.650Z,62.46
2022-08-11T04:44:06.892Z,62.35
2022-08-11T04:48:10.640Z,62.01
2022-08-11T05:14:52.762Z,56.25
2022-08-11T05:26:46.942Z,55.33
2022-08-11T05:30:02.230Z,54.57
2022-08-11T05:33:27.110Z,54.56
2022-08-11T05:36:37.501Z,52.49
2022-08-11T05:40:05.421Z,52.05
2022-08-11T05:43:31.630Z,50.90
2022-08-11T05:47:01.560Z,51.56
2022-08-11T05:50:31.471Z,51.49
2022-08-11T05:53:53.928Z,49.70
2022-08-11T05:56:59.987Z,50.15
2022-08-11T06:00:10.938Z,48.72
2022-08-11T06:03:26.996Z,48.08
2022-08-11T06:06:29.950Z,47.65
2022-08-11T06:09:46.891Z,47.32
2022-08-11T06:12:53.996Z,46.21
2022-08-11T06:15:57.269Z,46.30
2022-08-11T06:19:00.577Z,46.13
2022-08-11T06:22:04.087Z,44.50
2022-08-11T06:25:08.206Z,43.67
2022-08-11T06:28:10.518Z,42.95
2022-08-11T06:31:24.292Z,43.12
2022-08-11T06:34:37.797Z,41.87
2022-08-11T06:38:02.840Z,42.39
2022-08-11T06:41:30.451Z,41.41
2022-08-11T06:44:39.877Z,42.52
2022-08-11T06:47:49.636Z,40.63
2022-08-11T06:51:13.016Z,40.16
2022-08-11T06:54:15.470Z,40.68
2022-08-11T06:57:38.237Z,40.86
2022-08-11T07:00:41.190Z,40.08
2022-08-11T07:03:51.390Z,41.30
2022-08-11T07:07:19.572Z,41.07
2022-08-11T07:10:52.865Z,41.24
2022-08-11T07:14:18.289Z,40.12
2022-08-11T07:17:23.835Z,40.88
2022-08-11T07:20:44.549Z,39.89
2022-08-11T07:24:05.365Z,38.95
2022-08-11T07:27:35.821Z,39.13
2022-08-11T07:30:41.736Z,38.74
2022-08-11T07:34:07.587Z,38.08
2022-08-11T07:37:17.974Z,37.25
2022-08-11T07:40:24.475Z,37.00
2022-08-11T07:43:26.400Z,36.65
2022-08-11T07:46:47.179Z,35.67
2022-08-11T07:50:11.759Z,35.22
2022-08-11T07:53:15.908Z,35.35
2022-08-11T07:56:21.781Z,34.32
2022-08-11T08:00:00.674Z,33.79
2022-08-11T08:03:27.172Z,33.65
2022-08-11T08:06:49.283Z,31.96
2022-08-11T08:10:16.805Z,31.30
2022-08-11T08:13:37.366Z,30.88
2022-08-11T08:16:58.841Z,29.27
2022-08-11T08:20:01.292Z,28.87
2022-08-11T08:23:04.987Z,28.18
2022-08-11T08:26:28.535Z,27.60
2022-08-11T08:29:53.262Z,27.80
2022-08-11T08:32:58.062Z,25.72
2022-08-11T08:36:18.736Z,26.18
2022-08-11T08:39:22.007Z,24.83
2022-08-11T08:42:35.686Z,22.95
2022-08-11T08:45:39.857Z,23.29
2022-08-11T08:48:44.124Z,23.94
2022-08-11T08:52:01.248Z,21.69
2022-08-11T08:55:18.777Z,21.95
2022-08-11T08:58:23.930Z,20.45
2022-08-11T09:01:29.065Z,21.32
2022-08-11T09:04:32.373Z,20.03
2022-08-11T09:07:38.999Z,22.04
2022-08-11T09:10:42.398Z,19.32
2022-08-11T09:13:46.866Z,18.37
2022-08-11T09:17:08.238Z,18.05
2022-08-11T09:20:19.909Z,17.84
2022-08-11T09:24:08.367Z,17.97
2022-08-11T09:27:08.786Z,16.85
2022-08-11T09:30:11.571Z,15.49
2022-08-11T09:33:17.408Z,15.65
2022-08-11T09:36:39.200Z,17.37
2022-08-11T09:40:01.049Z,16.72
2022-08-11T09:43:29.380Z,17.63
2022-08-11T09:46:33.211Z,17.48
2022-08-11T09:49:37.842Z,14.47
2022-08-11T09:52:52.386Z,17.16
2022-08-11T09:56:25.921Z,13.63
2022-08-11T09:59:28.061Z,12.80
2022-08-11T10:02:30.951Z,14.68
2022-08-11T10:05:52.463Z,15.62
2022-08-11T10:08:55.480Z,14.66
2022-08-11T10:11:58.893Z,15.13
2022-08-11T10:15:23.702Z,17.72
2022-08-11T10:18:54.078Z,17.83
2022-08-11T10:22:15.170Z,17.73
2022-08-11T10:25:35.643Z,20.33
2022-08-11T10:28:55.955Z,19.42
2022-08-11T10:32:20.122Z,18.95
2022-08-11T10:35:26.426Z,22.01
2022-08-11T10:38:30.590Z,23.16
2022-08-11T10:42:06.536Z,23.87
2022-08-11T10:45:30.753Z,23.33
2022-08-11T10:48:38.045Z,22.44
2022-08-11T10:51:59.655Z,22.74
2022-08-11T10:55:20.109Z,21.78
2022-08-11T10:58:41.987Z,21.91
2022-08-11T11:01:45.520Z,23.12
2022-08-11T11:04:56.068Z,23.83
2022-08-11T11:08:27.176Z,25.95
2022-08-11T11:11:54.058Z,24.63
2022-08-11T11:15:18.014Z,26.17
2022-08-11T11:18:24.151Z,26.62
2022-08-11T11:21:27.064Z,24.84
2022-08-11T11:25:16.815Z,26.25
2022-08-11T11:28:35.809Z,26.53
2022-08-11T11:32:05.374Z,28.77
2022-08-11T11:35:16.132Z,28.24
2022-08-11T11:38:19.174Z,27.63
2022-08-11T11:41:26.905Z,27.05
2022-08-11T11:44:30.092Z,28.30
2022-08-11T11:47:33.245Z,25.48
2022-08-11T11:50:37.656Z,24.79
2022-08-11T11:53:44.131Z,24.97
2022-08-11T11:56:46.910Z,24.02
2022-08-11T12:00:09.807Z,24.30
2022-08-11T12:03:12.188Z,24.73
2022-08-11T12:06:15.471Z,25.30
2022-08-11T12:09:22.686Z,24.78
2022-08-11T12:12:44.307Z,25.25
2022-08-11T12:16:32.980Z,26.38
2022-08-11T12:19:14.594Z,25.66
2022-08-11T12:22:35.613Z,26.28
2022-08-11T12:26:23.372Z,25.63
2022-08-11T12:29:20.821Z,26.02
2022-08-11T12:32:26.085Z,25.25
2022-08-11T12:35:28.093Z,26.03
2022-08-11T12:38:31.551Z,26.80
2022-08-11T12:41:53.493Z,26.48
2022-08-11T12:45:22.226Z,25.72
2022-08-11T12:48:58.937Z,26.58
2022-08-11T12:52:14.431Z,26.53
2022-08-11T12:55:42.337Z,24.57
2022-08-11T12:59:24.959Z,24.27
2022-08-11T13:02:46.808Z,22.98
2022-08-11T13:05:51.580Z,22.88
2022-08-11T13:09:01.005Z,22.69
2022-08-11T13:12:22.361Z,22.07
2022-08-11T13:15:25.764Z,20.76
2022-08-11T13:18:30.713Z,21.80
2022-08-11T13:21:32.748Z,22.13
2022-08-11T13:24:37.863Z,23.44
2022-08-11T13:27:46.021Z,24.79
2022-08-11T13:31:09.590Z,24.49
2022-08-11T13:34:20.977Z,24.00
2022-08-11T13:38:18.458Z,21.93
2022-08-11T13:40:55.931Z,21.29
2022-08-11T13:43:58.965Z,18.75
2022-08-11T13:47:05.141Z,18.77
2022-08-11T13:50:08.530Z,19.62
2022-08-11T13:53:12.346Z,19.15
2022-08-11T13:56:14.719Z,21.03
2022-08-11T13:59:29.953Z,22.01
2022-08-11T14:02:33.176Z,21.10
2022-08-11T14:05:46.773Z,19.93
2022-08-11T14:08:53.605Z,21.01
2022-08-11T14:12:24.321Z,21.17
2022-08-11T14:15:33.849Z,21.31
2022-08-11T14:18:40.294Z,20.90
2022-08-11T14:22:06.538Z,20.16
2022-08-11T14:25:12.516Z,20.88
2022-08-11T14:28:30.644Z,20.14
2022-08-11T14:31:39.295Z,21.42
2022-08-11T14:34:45.027Z,22.68
2022-08-11T14:37:47.265Z,23.18
2022-08-11T14:41:08.125Z,24.07
2022-08-11T14:44:30.378Z,24.84
2022-08-11T14:47:35.928Z,24.35
2022-08-11T14:50:37.988Z,24.79
2022-08-11T14:53:40.827Z,25.10
2022-08-11T14:57:00.710Z,24.61
2022-08-11T15:00:04.817Z,24.20
2022-08-11T15:03:11.735Z,24.44
2022-08-11T15:06:14.440Z,23.92
2022-08-11T15:09:16.940Z,24.18
2022-08-11T15:12:32.270Z,24.35
2022-08-11T15:15:54.213Z,24.29
2022-08-11T15:18:57.207Z,24.94
2022-08-11T15:22:17.726Z,25.62
2022-08-11T15:25:23.050Z,25.70
2022-08-11T15:28:46.220Z,25.65
2022-08-11T15:32:07.194Z,26.10
2022-08-11T15:35:33.600Z,25.44
2022-08-11T15:38:47.463Z,25.92
2022-08-11T15:42:12.379Z,25.87
2022-08-11T15:45:36.491Z,26.67
2022-08-11T15:49:21.787Z,26.83
2022-08-11T15:52:31.940Z,27.35
2022-08-11T15:55:35.798Z,26.63
2022-08-11T15:59:33.751Z,27.94
2022-08-11T16:02:36.622Z,28.27
2022-08-11T16:05:45.743Z,30.99
2022-08-11T16:08:49.942Z,32.65
2022-08-11T16:11:54.645Z,33.09
2022-08-11T16:15:24.247Z,29.50
2022-08-11T16:18:40.934Z,32.47
2022-08-11T16:21:44.707Z,29.62
2022-08-11T16:27:03.987Z,29.13
2022-08-11T16:28:14.528Z,29.85
2022-08-11T16:31:18.059Z,29.46
2022-08-11T16:34:38.770Z,29.48
2022-08-11T16:38:00.267Z,29.75
2022-08-11T16:41:12.355Z,29.42
2022-08-11T16:44:37.602Z,31.58
2022-08-11T16:48:02.736Z,32.09
2022-08-11T16:51:05.834Z,35.06
2022-08-11T16:54:07.984Z,36.99
2022-08-11T16:57:32.352Z,38.61
2022-08-11T17:00:35.104Z,40.67
2022-08-11T17:04:02.136Z,41.92
2022-08-11T17:07:40.436Z,44.29
2022-08-11T17:11:19.386Z,45.50
2022-08-11T17:14:53.087Z,45.90
2022-08-11T17:17:57.424Z,45.06
2022-08-11T17:20:59.993Z,45.00
2022-08-11T17:24:09.243Z,46.38
2022-08-11T17:27:16.654Z,47.38
2022-08-11T17:30:19.108Z,45.64
2022-08-11T17:33:42.982Z,45.11
2022-08-11T17:36:45.979Z,44.87
2022-08-11T17:39:50.952Z,45.00
2022-08-11T17:43:13.385Z,44.16
2022-08-11T17:46:38.360Z,44.09
2022-08-11T17:49:41.335Z,43.98
2022-08-11T17:53:03.840Z,44.10
2022-08-11T17:56:33.939Z,43.61
2022-08-11T17:59:52.904Z,43.45
2022-08-11T18:03:14.694Z,43.44
2022-08-11T18:06:18.721Z,43.02
2022-08-11T18:09:40.221Z,42.64
2022-08-11T18:13:02.240Z,42.48
2022-08-11T18:16:22.960Z,44.73
2022-08-11T18:19:43.406Z,51.23
2022-08-11T18:23:06.923Z,55.36
2022-08-11T18:26:29.666Z,56.55
2022-08-11T18:29:53.291Z,61.78
2022-08-11T18:33:45.111Z,68.77
2022-08-11T18:37:06.319Z,74.38
2022-08-11T18:40:32.941Z,80.26
2022-08-11T18:43:57.790Z,84.56
2022-08-11T18:47:25.147Z,79.89
2022-08-11T18:50:51.388Z,79.69
2022-08-11T18:54:34.914Z,78.00
2022-08-11T18:57:58.162Z,76.63
2022-08-11T19:01:21.718Z,75.78
2022-08-11T19:04:43.996Z,77.85
2022-08-11T19:08:07.657Z,79.08
2022-08-11T19:11:30.211Z,81.83
2022-08-11T19:14:53.436Z,79.75
2022-08-11T19:18:16.125Z,80.21
2022-08-11T19:21:39.710Z,81.85
2022-08-11T19:25:03.416Z,87.01
2022-08-11T19:28:26.191Z,86.99
2022-08-11T19:31:48.160Z,85.14
2022-08-11T19:35:10.089Z,84.01
2022-08-11T19:38:32.091Z,79.93
2022-08-11T19:41:57.542Z,75.81
2022-08-11T19:45:22.758Z,79.04
2022-08-11T19:48:45.462Z,77.41
2022-08-11T19:52:08.015Z,79.89
2022-08-11T19:55:29.592Z,80.44
2022-08-11T19:58:50.605Z,78.79
2022-08-11T20:02:13.533Z,78.78
2022-08-11T20:05:35.264Z,75.68
2022-08-11T20:09:00.327Z,75.58
2022-08-11T20:12:23.194Z,70.85
2022-08-11T20:15:46.128Z,71.91
2022-08-11T20:19:10.057Z,72.34
2022-08-11T20:22:32.976Z,71.02
2022-08-11T20:26:03.449Z,71.98
2022-08-11T20:29:26.331Z,73.48
2022-08-11T20:32:47.571Z,71.95
2022-08-11T20:36:08.663Z,70.63
2022-08-11T20:39:30.938Z,70.44
2022-08-11T20:42:53.576Z,69.42
2022-08-11T20:46:15.157Z,69.16
2022-08-11T20:49:44.363Z,67.50
2022-08-11T20:53:10.075Z,65.98
2022-08-11T20:56:32.233Z,66.28
2022-08-11T20:59:56.848Z,66.58
2022-08-11T21:03:35.777Z,65.40
2022-08-11T21:06:58.776Z,67.78
2022-08-11T21:10:23.250Z,67.25
2022-08-11T21:13:52.918Z,68.64
2022-08-11T21:17:28.238Z,67.90
2022-08-11T21:20:50.738Z,66.77
2022-08-11T21:24:13.250Z,65.62
2022-08-11T21:27:38.749Z,68.54
2022-08-11T21:31:00.071Z,66.54
2022-08-11T21:34:22.078Z,66.18
2022-08-11T21:37:44.698Z,67.29
2022-08-11T21:41:10.894Z,64.95
2022-08-11T21:44:32.762Z,63.49
2022-08-11T21:48:01.127Z,64.71
2022-08-11T21:51:22.501Z,65.75
2022-08-11T21:54:43.949Z,64.70
2022-08-11T21:58:05.732Z,64.62
2022-08-11T22:01:28.337Z,64.81
2022-08-11T22:04:55.454Z,63.96
2022-08-11T22:08:16.592Z,64.56
2022-08-11T22:11:37.012Z,65.34
2022-08-11T22:14:58.540Z,62.80
2022-08-11T22:18:22.016Z,63.84
2022-08-11T22:22:03.294Z,63.51
2022-08-11T22:25:24.165Z,60.84
2022-08-11T22:28:52.617Z,62.73
2022-08-11T22:32:14.466Z,63.72
2022-08-11T22:35:35.835Z,64.67
2022-08-11T22:38:59.406Z,66.16
2022-08-11T22:42:19.767Z,65.89
2022-08-11T22:45:53.684Z,65.63
2022-08-11T22:49:15.029Z,67.29
2022-08-11T22:52:37.061Z,65.73
2022-08-11T22:55:58.818Z,65.18
2022-08-11T22:59:19.183Z,65.87
2022-08-11T23:02:40.795Z,65.84
2022-08-11T23:06:01.887Z,66.95
2022-08-11T23:09:27.213Z,66.86
2022-08-11T23:12:47.871Z,67.37
2022-08-11T23:16:09.747Z,66.66
2022-08-11T23:20:04.759Z,67.19
2022-08-11T23:23:11.835Z,65.99
2022-08-11T23:26:33.672Z,66.44
2022-08-11T23:29:56.640Z,67.35
2022-08-11T23:33:18.986Z,65.64
2022-08-11T23:36:47.916Z,65.87
2022-08-11T23:40:09.128Z,65.67
2022-08-11T23:43:38.498Z,64.31
2022-08-11T23:47:00.568Z,64.69
2022-08-11T23:50:21.360Z,65.83
2022-08-11T23:53:42.502Z,65.94
2022-08-11T23:57:03.892Z,66.37
